createdAt,value
2022-11-02T00:01:57.497Z,56.66
2022-11-02T00:04:59.135Z,56.24
2022-11-02T00:08:00.690Z,56.26
2022-11-02T00:11:02.238Z,56.35
2022-11-02T00:14:03.995Z,56.36
2022-11-02T00:17:05.785Z,56.34
2022-11-02T00:20:08.296Z,56.53
2022-11-02T00:23:12.326Z,56.43
2022-11-02T00:26:14.338Z,56.31
2022-11-02T00:29:15.916Z,56.24
2022-11-02T00:32:17.538Z,56.35
2022-11-02T00:35:19.118Z,56.39
2022-11-02T00:38:20.623Z,56.55
2022-11-02T00:41:22.396Z,56.46
2022-11-02T00:44:23.915Z,56.53
2022-11-02T00:47:25.493Z,56.59
2022-11-02T00:50:27.065Z,56.58
2022-11-02T00:53:28.570Z,56.56
2022-11-02T00:56:30.103Z,56.54
2022-11-02T00:59:31.673Z,56.50
2022-11-02T01:02:34.508Z,56.35
2022-11-02T01:05:37.798Z,56.49
2022-11-02T01:08:39.475Z,56.31
2022-11-02T01:11:41.521Z,56.35
2022-11-02T01:14:43.077Z,56.44
2022-11-02T01:17:44.606Z,56.23
2022-11-02T01:20:46.125Z,56.28
2022-11-02T01:23:48.244Z,56.27
2022-11-02T01:26:53.505Z,56.51
2022-11-02T01:29:55.117Z,56.33
2022-11-02T01:32:56.646Z,56.41
2022-11-02T01:35:58.407Z,56.42
2022-11-02T01:38:59.920Z,56.64
2022-11-02T01:42:01.738Z,56.61
2022-11-02T01:45:03.585Z,56.60
2022-11-02T01:48:05.528Z,56.43
2022-11-02T01:51:11.533Z,56.59
2022-11-02T01:54:17.622Z,56.64
2022-11-02T01:57:22.096Z,56.72
2022-11-02T02:00:23.813Z,56.68
2022-11-02T02:03:25.730Z,56.62
2022-11-02T02:06:27.346Z,56.63
2022-11-02T02:09:30.087Z,56.64
2022-11-02T02:12:33.147Z,56.71
2022-11-02T02:15:56.876Z,56.75
2022-11-02T02:19:02.571Z,56.77
2022-11-02T02:22:07.147Z,56.65
2022-11-02T02:25:11.523Z,56.75
2022-11-02T02:28:45.139Z,56.75
2022-11-02T02:31:49.428Z,56.75
2022-11-02T02:34:59.082Z,56.90
2022-11-02T02:38:04.758Z,56.78
2022-11-02T02:41:14.183Z,56.74
2022-11-02T02:44:23.057Z,56.87
2022-11-02T02:47:27.864Z,56.87
2022-11-02T02:50:35.724Z,56.79
2022-11-02T02:53:45.090Z,56.83
2022-11-02T02:57:00.980Z,56.85
2022-11-02T03:00:03.451Z,56.65
2022-11-02T03:03:05.700Z,56.83
2022-11-02T03:06:09.979Z,56.88
2022-11-02T03:09:14.326Z,56.75
2022-11-02T03:12:39.347Z,56.81
2022-11-02T03:15:44.784Z,56.78
2022-11-02T03:18:57.847Z,56.88
2022-11-02T03:22:05.405Z,56.91
2022-11-02T03:25:15.588Z,56.86
2022-11-02T03:28:48.760Z,56.81
2022-11-02T03:32:19.768Z,56.87
2022-11-02T03:35:30.994Z,56.88
2022-11-02T03:38:42.425Z,56.78
2022-11-02T03:41:46.211Z,56.87
2022-11-02T03:44:52.370Z,56.95
2022-11-02T03:48:04.361Z,56.89
2022-11-02T03:51:12.403Z,56.90
2022-11-02T03:54:34.142Z,56.77
2022-11-02T03:57:57.608Z,56.85
2022-11-02T04:01:03.897Z,56.80
2022-11-02T04:04:05.727Z,56.72
2022-11-02T04:07:07.379Z,56.80
2022-11-02T04:10:09.191Z,56.63
2022-11-02T04:13:29.355Z,56.69
2022-11-02T04:16:30.874Z,56.65
2022-11-02T04:19:32.412Z,56.68
2022-11-02T04:22:52.288Z,56.61
2022-11-02T04:25:55.035Z,56.60
2022-11-02T04:28:56.579Z,56.77
2022-11-02T04:31:58.462Z,56.76
2022-11-02T04:34:59.983Z,56.73
2022-11-02T04:38:20.279Z,56.73
2022-11-02T04:41:41.759Z,56.76
2022-11-02T04:44:43.327Z,56.69
2022-11-02T04:47:44.887Z,56.81
2022-11-02T04:50:46.416Z,56.65
2022-11-02T04:53:49.221Z,56.71
2022-11-02T04:56:50.798Z,56.80
2022-11-02T04:59:52.380Z,56.75
2022-11-02T05:02:53.992Z,56.69
2022-11-02T05:05:55.974Z,56.83
2022-11-02T05:08:57.607Z,56.87
2022-11-02T05:11:59.315Z,56.86
2022-11-02T05:15:00.983Z,56.87
2022-11-02T05:18:02.792Z,56.85
2022-11-02T05:21:05.072Z,56.81
2022-11-02T05:24:07.039Z,56.87
2022-11-02T05:27:10.135Z,56.74
2022-11-02T05:30:12.236Z,56.84
2022-11-02T05:33:13.940Z,56.93
2022-11-02T05:36:16.403Z,56.86
2022-11-02T05:39:17.907Z,56.79
2022-11-02T05:42:19.528Z,57.14
2022-11-02T05:45:23.701Z,56.99
2022-11-02T05:48:27.623Z,56.92
2022-11-02T05:51:29.126Z,56.98
2022-11-02T05:54:30.679Z,56.84
2022-11-02T05:57:32.274Z,56.94
2022-11-02T06:00:33.795Z,56.86
2022-11-02T06:03:36.319Z,56.89
2022-11-02T06:06:37.892Z,56.82
2022-11-02T06:09:39.497Z,56.90
2022-11-02T06:12:41.143Z,56.83
2022-11-02T06:15:42.730Z,56.83
2022-11-02T06:18:45.643Z,56.88
2022-11-02T06:21:48.502Z,56.84
2022-11-02T06:24:50.338Z,56.94
2022-11-02T06:27:55.084Z,56.92
2022-11-02T06:30:57.221Z,56.74
2022-11-02T06:33:58.739Z,56.89
2022-11-02T06:37:00.432Z,56.97
2022-11-02T06:40:02.010Z,56.89
2022-11-02T06:43:15.835Z,56.85
2022-11-02T06:46:17.937Z,56.91
2022-11-02T06:49:19.483Z,57.05
2022-11-02T06:52:21.020Z,57.06
2022-11-02T06:55:22.512Z,57.12
2022-11-02T06:58:24.969Z,57.08
2022-11-02T07:01:26.576Z,57.08
2022-11-02T07:04:28.202Z,57.09
2022-11-02T07:07:29.759Z,56.95
2022-11-02T07:10:31.851Z,56.99
2022-11-02T07:13:33.395Z,56.93
2022-11-02T07:16:35.036Z,56.89
2022-11-02T07:19:36.604Z,56.87
2022-11-02T07:22:38.193Z,56.87
2022-11-02T07:25:39.751Z,56.76
2022-11-02T07:28:41.399Z,56.81
2022-11-02T07:31:43.127Z,56.79
2022-11-02T07:34:45.095Z,56.79
2022-11-02T07:37:55.671Z,56.83
2022-11-02T07:40:57.205Z,56.82
2022-11-02T07:43:58.892Z,56.94
2022-11-02T07:47:01.486Z,56.83
2022-11-02T07:50:03.227Z,56.92
2022-11-02T07:53:05.151Z,56.98
2022-11-02T07:56:07.744Z,56.79
2022-11-02T07:59:10.781Z,56.98
2022-11-02T08:02:13.661Z,56.90
2022-11-02T08:05:15.284Z,56.88
2022-11-02T08:08:20.940Z,56.84
2022-11-02T08:11:22.441Z,56.79
2022-11-02T08:14:24.039Z,56.93
2022-11-02T08:17:25.602Z,57.00
2022-11-02T08:20:27.311Z,56.76
2022-11-02T08:23:28.879Z,56.91
2022-11-02T08:26:30.912Z,56.89
2022-11-02T08:29:32.683Z,56.98
2022-11-02T08:32:34.210Z,56.85
2022-11-02T08:35:37.662Z,56.73
2022-11-02T08:38:40.085Z,56.86
2022-11-02T08:41:41.585Z,56.65
2022-11-02T08:44:43.145Z,56.58
2022-11-02T08:47:45.016Z,56.80
2022-11-02T08:50:48.923Z,56.86
2022-11-02T08:53:51.875Z,56.63
2022-11-02T08:56:53.627Z,56.67
2022-11-02T08:59:55.215Z,56.90
2022-11-02T09:03:04.273Z,56.61
2022-11-02T09:06:06.122Z,56.80
2022-11-02T09:09:07.666Z,56.78
2022-11-02T09:12:09.189Z,56.77
2022-11-02T09:15:10.777Z,56.72
2022-11-02T09:18:12.278Z,56.70
2022-11-02T09:21:14.010Z,56.83
2022-11-02T09:24:15.857Z,56.75
2022-11-02T09:27:17.362Z,56.77
2022-11-02T09:30:19.078Z,56.40
2022-11-02T09:33:20.648Z,56.62
2022-11-02T09:36:22.213Z,56.73
2022-11-02T09:39:24.900Z,56.70
2022-11-02T09:42:53.338Z,56.81
2022-11-02T09:46:26.111Z,56.84
2022-11-02T09:49:30.054Z,56.61
2022-11-02T09:52:40.077Z,56.59
2022-11-02T09:55:52.246Z,56.79
2022-11-02T09:58:59.692Z,56.75
2022-11-02T10:02:11.393Z,56.73
2022-11-02T10:05:32.251Z,56.61
2022-11-02T10:08:53.681Z,56.28
2022-11-02T10:12:21.292Z,56.25
2022-11-02T10:15:28.911Z,56.49
2022-11-02T10:18:31.374Z,56.40
2022-11-02T10:21:34.587Z,56.23
2022-11-02T10:24:43.283Z,56.13
2022-11-02T10:27:50.219Z,56.26
2022-11-02T10:30:53.931Z,56.24
2022-11-02T10:33:58.335Z,56.14
2022-11-02T10:37:24.163Z,56.23
2022-11-02T10:40:37.911Z,56.21
2022-11-02T10:44:03.811Z,56.32
2022-11-02T10:47:10.802Z,56.40
2022-11-02T10:50:15.264Z,56.16
2022-11-02T10:56:42.042Z,56.18
2022-11-02T10:59:43.569Z,56.26
2022-11-02T11:02:45.091Z,56.23
2022-11-02T11:05:59.547Z,56.24
2022-11-02T11:09:07.806Z,56.23
2022-11-02T11:12:29.352Z,56.05
2022-11-02T11:15:49.763Z,56.16
2022-11-02T11:22:33.133Z,55.76
2022-11-02T11:25:34.823Z,55.71
2022-11-02T11:28:53.405Z,55.60
2022-11-02T11:31:55.079Z,55.57
2022-11-02T11:35:01.422Z,55.49
2022-11-02T11:38:07.732Z,55.94
2022-11-02T11:41:12.406Z,55.58
2022-11-02T11:44:15.367Z,55.57
2022-11-02T11:47:17.078Z,55.58
2022-11-02T11:50:27.882Z,55.53
2022-11-02T11:53:32.311Z,55.66
2022-11-02T11:56:34.782Z,55.40
2022-11-02T11:59:42.422Z,55.69
2022-11-02T12:02:44.903Z,55.74
2022-11-02T12:06:06.008Z,55.70
2022-11-02T12:09:19.427Z,55.60
2022-11-02T12:12:32.727Z,55.62
2022-11-02T12:16:07.044Z,55.57
2022-11-02T12:19:22.787Z,55.47
2022-11-02T12:22:50.739Z,55.50
2022-11-02T12:26:13.352Z,55.12
2022-11-02T12:29:36.909Z,55.24
2022-11-02T12:33:15.795Z,55.50
2022-11-02T12:36:28.510Z,54.97
2022-11-02T12:40:07.328Z,55.06
2022-11-02T12:43:30.859Z,55.33
2022-11-02T12:46:48.695Z,55.06
2022-11-02T12:50:19.426Z,55.06
2022-11-02T12:53:45.577Z,54.85
2022-11-02T12:56:52.725Z,54.91
2022-11-02T13:00:00.110Z,54.92
2022-11-02T13:03:16.699Z,54.80
2022-11-02T13:06:29.423Z,54.88
2022-11-02T13:09:51.369Z,55.00
2022-11-02T13:12:58.403Z,54.67
2022-11-02T13:16:01.407Z,54.83
2022-11-02T13:19:04.275Z,54.59
2022-11-02T13:22:10.551Z,54.54
2022-11-02T13:25:30.267Z,54.49
2022-11-02T13:28:48.688Z,54.35
2022-11-02T13:32:29.667Z,54.57
2022-11-02T13:35:37.658Z,54.16
2022-11-02T13:38:46.734Z,54.23
2022-11-02T13:42:30.164Z,54.38
2022-11-02T13:45:50.296Z,54.40
2022-11-02T13:49:00.919Z,54.60
2022-11-02T13:52:05.122Z,54.31
2022-11-02T13:55:16.006Z,54.24
2022-11-02T13:58:31.403Z,54.72
2022-11-02T14:01:36.690Z,54.33
2022-11-02T14:04:40.916Z,54.28
2022-11-02T14:07:42.504Z,54.34
2022-11-02T14:10:44.123Z,54.47
2022-11-02T14:13:51.986Z,54.16
2022-11-02T14:16:53.579Z,54.48
2022-11-02T14:19:56.910Z,54.16
2022-11-02T14:23:14.387Z,54.34
2022-11-02T14:26:32.848Z,54.17
2022-11-02T14:29:46.640Z,54.33
2022-11-02T14:33:06.712Z,54.28
2022-11-02T14:36:32.210Z,54.16
2022-11-02T14:39:50.945Z,54.04
2022-11-02T14:43:11.243Z,54.12
2022-11-02T14:46:23.373Z,54.25
2022-11-02T14:49:30.045Z,53.96
2022-11-02T14:52:36.530Z,53.89
2022-11-02T14:55:39.194Z,54.19
2022-11-02T14:58:50.685Z,54.20
2022-11-02T15:01:59.223Z,53.96
2022-11-02T15:05:04.018Z,53.83
2022-11-02T15:08:17.614Z,54.43
2022-11-02T15:11:46.900Z,54.19
2022-11-02T15:14:49.029Z,54.19
2022-11-02T15:17:52.444Z,54.28
2022-11-02T15:21:13.219Z,54.28
2022-11-02T15:24:19.836Z,54.07
2022-11-02T15:27:22.971Z,54.12
2022-11-02T15:30:28.343Z,54.27
2022-11-02T15:33:43.896Z,54.07
2022-11-02T15:36:46.089Z,54.20
2022-11-02T15:39:52.547Z,54.08
2022-11-02T15:43:21.495Z,53.88
2022-11-02T15:46:38.559Z,53.99
2022-11-02T15:50:25.784Z,54.14
2022-11-02T15:53:55.845Z,54.02
2022-11-02T15:57:38.871Z,53.95
2022-11-02T16:00:40.580Z,54.03
2022-11-02T16:03:57.094Z,53.91
2022-11-02T16:07:05.439Z,54.08
2022-11-02T16:10:20.816Z,54.00
2022-11-02T16:13:22.915Z,54.04
2022-11-02T16:16:24.724Z,53.88
2022-11-02T16:19:26.528Z,54.16
2022-11-02T16:22:28.144Z,54.00
2022-11-02T16:25:40.401Z,54.06
2022-11-02T16:28:42.374Z,54.18
2022-11-02T16:31:43.970Z,53.79
2022-11-02T16:34:45.954Z,53.93
2022-11-02T16:37:50.187Z,53.92
2022-11-02T16:40:52.080Z,54.08
2022-11-02T16:43:54.538Z,53.99
2022-11-02T16:47:00.087Z,53.98
2022-11-02T16:50:02.134Z,54.47
2022-11-02T16:53:03.664Z,54.38
2022-11-02T16:56:18.528Z,54.46
2022-11-02T16:59:21.490Z,53.91
2022-11-02T17:02:38.511Z,53.98
2022-11-02T17:05:42.101Z,53.60
2022-11-02T17:08:44.758Z,53.57
2022-11-02T17:11:46.581Z,53.69
2022-11-02T17:14:49.888Z,53.66
2022-11-02T17:18:23.125Z,53.20
2022-11-02T17:21:28.136Z,53.74
2022-11-02T17:24:32.340Z,53.48
2022-11-02T17:27:39.156Z,53.39
2022-11-02T17:30:45.271Z,53.70
2022-11-02T17:33:48.109Z,53.60
2022-11-02T17:36:50.746Z,53.78
2022-11-02T17:39:53.603Z,53.72
2022-11-02T17:42:59.572Z,53.61
2022-11-02T17:46:01.153Z,53.71
2022-11-02T17:49:02.709Z,53.72
2022-11-02T17:52:04.572Z,53.47
2022-11-02T17:55:07.227Z,53.43
2022-11-02T17:58:10.428Z,53.48
2022-11-02T18:01:13.016Z,53.72
2022-11-02T18:04:14.691Z,53.54
2022-11-02T18:07:16.303Z,53.50
2022-11-02T18:10:19.416Z,53.70
2022-11-02T18:13:23.706Z,53.57
2022-11-02T18:16:25.265Z,53.68
2022-11-02T18:19:28.250Z,53.65
2022-11-02T18:22:29.784Z,53.62
2022-11-02T18:25:32.427Z,53.53
2022-11-02T18:28:34.755Z,53.47
2022-11-02T18:31:37.290Z,53.56
2022-11-02T18:34:38.839Z,53.52
2022-11-02T18:37:41.441Z,53.53
2022-11-02T18:40:43.069Z,53.50
2022-11-02T18:43:44.560Z,53.45
2022-11-02T18:46:46.084Z,53.51
2022-11-02T18:49:47.741Z,53.54
2022-11-02T18:52:50.796Z,53.53
2022-11-02T18:55:52.657Z,53.59
2022-11-02T18:58:55.212Z,53.51
2022-11-02T19:01:56.924Z,53.39
2022-11-02T19:04:58.674Z,53.47
2022-11-02T19:08:19.375Z,53.39
2022-11-02T19:11:21.689Z,53.58
2022-11-02T19:14:24.486Z,53.53
2022-11-02T19:17:26.808Z,53.43
2022-11-02T19:20:28.340Z,53.44
2022-11-02T19:23:29.876Z,53.42
2022-11-02T19:26:31.688Z,53.49
2022-11-02T19:29:34.086Z,53.49
2022-11-02T19:32:35.661Z,53.35
2022-11-02T19:35:37.348Z,53.62
2022-11-02T19:38:39.851Z,53.46
2022-11-02T19:41:41.450Z,53.56
2022-11-02T19:44:43.128Z,53.54
2022-11-02T19:47:44.799Z,53.53
2022-11-02T19:50:46.359Z,53.47
2022-11-02T19:53:53.135Z,53.58
2022-11-02T19:56:54.714Z,53.53
2022-11-02T19:59:56.219Z,53.59
2022-11-02T20:02:57.833Z,53.57
2022-11-02T20:06:01.159Z,53.66
2022-11-02T20:09:04.770Z,53.45
2022-11-02T20:12:07.603Z,53.59
2022-11-02T20:15:10.927Z,53.52
2022-11-02T20:18:19.403Z,53.66
2022-11-02T20:21:29.845Z,53.75
2022-11-02T20:24:32.976Z,53.55
2022-11-02T20:27:40.771Z,53.45
2022-11-02T20:30:43.323Z,53.55
2022-11-02T20:33:45.533Z,53.72
2022-11-02T20:36:47.575Z,53.50
2022-11-02T20:39:49.955Z,53.56
2022-11-02T20:42:51.523Z,53.66
2022-11-02T20:46:23.761Z,53.76
2022-11-02T20:49:48.931Z,53.64
2022-11-02T20:52:45.683Z,53.62
2022-11-02T20:55:47.248Z,53.70
2022-11-02T20:58:55.488Z,53.73
2022-11-02T21:01:57.739Z,53.63
2022-11-02T21:04:59.329Z,53.64
2022-11-02T21:08:01.072Z,53.53
2022-11-02T21:11:04.192Z,53.60
2022-11-02T21:14:05.743Z,53.68
2022-11-02T21:17:07.359Z,53.83
2022-11-02T21:23:31.205Z,53.79
2022-11-02T21:26:32.862Z,53.74
2022-11-02T21:29:34.927Z,53.82
2022-11-02T21:32:36.462Z,53.69
2022-11-02T21:35:37.996Z,53.75
2022-11-02T21:38:39.590Z,53.95
2022-11-02T21:41:41.169Z,53.76
2022-11-02T21:44:42.763Z,53.88
2022-11-02T21:47:44.353Z,53.99
2022-11-02T21:50:45.986Z,54.00
2022-11-02T21:53:48.794Z,53.90
2022-11-02T21:56:50.427Z,53.84
2022-11-02T21:59:52.047Z,53.95
2022-11-02T22:02:53.590Z,53.84
2022-11-02T22:05:55.100Z,53.84
2022-11-02T22:08:56.836Z,53.89
2022-11-02T22:12:16.955Z,54.08
2022-11-02T22:15:18.449Z,54.16
2022-11-02T22:18:20.005Z,53.95
2022-11-02T22:21:22.448Z,54.02
2022-11-02T22:24:24.076Z,54.11
2022-11-02T22:27:25.579Z,54.87
2022-11-02T22:30:29.456Z,54.42
2022-11-02T22:33:31.102Z,54.08
2022-11-02T22:36:34.206Z,54.03
2022-11-02T22:39:35.722Z,54.22
2022-11-02T22:42:39.875Z,54.07
2022-11-02T22:45:44.002Z,54.13
2022-11-02T22:48:45.605Z,54.11
2022-11-02T22:51:49.438Z,54.20
2022-11-02T22:54:50.962Z,54.28
2022-11-02T22:57:59.776Z,54.14
2022-11-02T23:01:02.299Z,54.27
2022-11-02T23:04:05.376Z,54.19
2022-11-02T23:07:06.922Z,54.26
2022-11-02T23:10:28.736Z,54.29
2022-11-02T23:13:30.306Z,54.08
2022-11-02T23:16:35.659Z,54.06
2022-11-02T23:19:38.298Z,54.11
2022-11-02T23:22:39.843Z,54.20
2022-11-02T23:25:41.418Z,54.20
2022-11-02T23:29:01.601Z,54.18
2022-11-02T23:32:22.033Z,54.08
2022-11-02T23:35:41.961Z,54.31
2022-11-02T23:39:04.544Z,54.27
2022-11-02T23:42:06.087Z,54.22
2022-11-02T23:45:08.429Z,54.32
2022-11-02T23:48:10.061Z,54.26
2022-11-02T23:51:30.232Z,54.30
2022-11-02T23:54:50.485Z,54.24
2022-11-02T23:57:52.000Z,54.44
